sensor_id;sensor_type;location;lat;lon;timestamp;pressure;altitude;pressure_sealevel;temperature;humidity
60061;BME280;45933;51.336;12.612;2023-04-29T00:00:16;99296.50;;;13.19;66.74
60061;BME280;45933;51.336;12.612;2023-04-29T00:02:42;99297.34;;;13.19;66.95
60061;BME280;45933;51.336;12.612;2023-04-29T00:05:08;99298.19;;;13.20;66.79
60061;BME280;45933;51.336;12.612;2023-04-29T00:07:33;99293.78;;;13.22;66.80
60061;BME280;45933;51.336;12.612;2023-04-29T00:09:58;99307.75;;;13.22;67.51
60061;BME280;45933;51.336;12.612;2023-04-29T00:12:24;99301.56;;;13.25;67.35
60061;BME280;45933;51.336;12.612;2023-04-29T00:14:50;99310.28;;;13.25;67.16
60061;BME280;45933;51.336;12.612;2023-04-29T00:17:15;99311.19;;;13.24;67.53
60061;BME280;45933;51.336;12.612;2023-04-29T00:19:41;99312.94;;;13.24;67.80
60061;BME280;45933;51.336;12.612;2023-04-29T00:22:06;99303.34;;;13.24;67.73
60061;BME280;45933;51.336;12.612;2023-04-29T00:24:32;99292.81;;;13.26;67.59
60061;BME280;45933;51.336;12.612;2023-04-29T00:26:57;99297.09;;;13.28;67.64
60061;BME280;45933;51.336;12.612;2023-04-29T00:29:22;99298.09;;;13.24;68.42
60061;BME280;45933;51.336;12.612;2023-04-29T00:31:48;99294.47;;;13.28;68.14
60061;BME280;45933;51.336;12.612;2023-04-29T00:34:13;99292.56;;;13.33;67.65
60061;BME280;45933;51.336;12.612;2023-04-29T00:36:38;99289.22;;;13.30;68.17
60061;BME280;45933;51.336;12.612;2023-04-29T00:39:04;99294.44;;;13.30;68.14
60061;BME280;45933;51.336;12.612;2023-04-29T00:41:29;99290.06;;;13.30;68.34
60061;BME280;45933;51.336;12.612;2023-04-29T00:43:56;99293.50;;;13.32;68.35
60061;BME280;45933;51.336;12.612;2023-04-29T00:46:21;99303.97;;;13.32;68.56
60061;BME280;45933;51.336;12.612;2023-04-29T00:48:46;99304.81;;;13.33;68.43
60061;BME280;45933;51.336;12.612;2023-04-29T00:51:12;99304.81;;;13.33;68.53
60061;BME280;45933;51.336;12.612;2023-04-29T00:53:38;99310.03;;;13.33;68.57
60061;BME280;45933;51.336;12.612;2023-04-29T00:56:04;99303.03;;;13.35;68.03
60061;BME280;45933;51.336;12.612;2023-04-29T00:58:31;99311.78;;;13.34;68.29
60061;BME280;45933;51.336;12.612;2023-04-29T01:01:00;99296.16;;;13.31;69.13
60061;BME280;45933;51.336;12.612;2023-04-29T01:03:27;99305.72;;;13.32;69.42
60061;BME280;45933;51.336;12.612;2023-04-29T01:06:03;99313.56;;;13.32;69.93
60061;BME280;45933;51.336;12.612;2023-04-29T01:08:40;99300.53;;;13.30;69.84
60061;BME280;45933;51.336;12.612;2023-04-29T01:11:10;99299.75;;;13.27;69.98
60061;BME280;45933;51.336;12.612;2023-04-29T01:13:44;99297.81;;;13.33;69.31
60061;BME280;45933;51.336;12.612;2023-04-29T01:17:05;99302.97;;;13.37;69.13
60061;BME280;45933;51.336;12.612;2023-04-29T01:19:37;99308.03;;;13.43;68.47
60061;BME280;45933;51.336;12.612;2023-04-29T01:22:04;99301.25;;;13.36;68.76
60061;BME280;45933;51.336;12.612;2023-04-29T01:24:29;99291.69;;;13.34;69.04
60061;BME280;45933;51.336;12.612;2023-04-29T01:27:00;99299.56;;;13.34;70.05
60061;BME280;45933;51.336;12.612;2023-04-29T01:29:40;99302.13;;;13.36;69.03
60061;BME280;45933;51.336;12.612;2023-04-29T01:32:12;99303.81;;;13.37;70.14
60061;BME280;45933;51.336;12.612;2023-04-29T01:34:58;99308.16;;;13.38;69.73
60061;BME280;45933;51.336;12.612;2023-04-29T01:37:32;99308.88;;;13.43;69.45
60061;BME280;45933;51.336;12.612;2023-04-29T01:43:03;99309.59;;;13.48;68.53
60061;BME280;45933;51.336;12.612;2023-04-29T01:45:31;99316.84;;;13.40;69.35
60061;BME280;45933;51.336;12.612;2023-04-29T01:47:58;99312.53;;;13.38;69.34
60061;BME280;45933;51.336;12.612;2023-04-29T01:50:25;99319.47;;;13.40;69.20
60061;BME280;45933;51.336;12.612;2023-04-29T01:52:50;99317.69;;;13.41;68.82
60061;BME280;45933;51.336;12.612;2023-04-29T01:55:15;99322.06;;;13.40;68.79
60061;BME280;45933;51.336;12.612;2023-04-29T01:57:41;99319.53;;;13.37;69.14
60061;BME280;45933;51.336;12.612;2023-04-29T02:00:07;99322.16;;;13.37;68.83
60061;BME280;45933;51.336;12.612;2023-04-29T02:02:33;99323.91;;;13.37;68.89
60061;BME280;45933;51.336;12.612;2023-04-29T02:04:58;99331.78;;;13.37;68.76
60061;BME280;45933;51.336;12.612;2023-04-29T02:07:24;99328.19;;;13.39;68.72
60061;BME280;45933;51.336;12.612;2023-04-29T02:09:49;99329.94;;;13.39;68.70
60061;BME280;45933;51.336;12.612;2023-04-29T02:12:15;99329.94;;;13.40;68.57
60061;BME280;45933;51.336;12.612;2023-04-29T02:14:40;99332.53;;;13.40;68.77
60061;BME280;45933;51.336;12.612;2023-04-29T02:17:06;99335.16;;;13.40;69.11
60061;BME280;45933;51.336;12.612;2023-04-29T02:19:31;99335.09;;;13.42;68.76
60061;BME280;45933;51.336;12.612;2023-04-29T02:21:56;99332.50;;;13.42;68.82
60061;BME280;45933;51.336;12.612;2023-04-29T02:24:21;99334.25;;;13.41;68.99
60061;BME280;45933;51.336;12.612;2023-04-29T02:26:47;99335.97;;;13.42;69.02
60061;BME280;45933;51.336;12.612;2023-04-29T02:29:12;99335.97;;;13.42;69.22
60061;BME280;45933;51.336;12.612;2023-04-29T02:31:37;99335.97;;;13.42;69.04
60061;BME280;45933;51.336;12.612;2023-04-29T02:34:03;99331.59;;;13.43;69.26
60061;BME280;45933;51.336;12.612;2023-04-29T02:36:28;99336.00;;;13.41;69.68
60061;BME280;45933;51.336;12.612;2023-04-29T02:38:54;99339.38;;;13.44;68.99
60061;BME280;45933;51.336;12.612;2023-04-29T02:41:20;99342.09;;;13.41;69.34
60061;BME280;45933;51.336;12.612;2023-04-29T02:43:46;99338.59;;;13.42;69.13
60061;BME280;45933;51.336;12.612;2023-04-29T02:46:13;99336.81;;;13.43;69.25
60061;BME280;45933;51.336;12.612;2023-04-29T02:48:38;99341.19;;;13.42;69.06
60061;BME280;45933;51.336;12.612;2023-04-29T02:51:03;99334.16;;;13.44;69.03
60061;BME280;45933;51.336;12.612;2023-04-29T02:53:29;99345.50;;;13.45;69.00
60061;BME280;45933;51.336;12.612;2023-04-29T02:55:54;99339.38;;;13.46;68.75
60061;BME280;45933;51.336;12.612;2023-04-29T02:58:20;99338.50;;;13.45;69.11
60061;BME280;45933;51.336;12.612;2023-04-29T03:00:45;99342.88;;;13.45;68.89
60061;BME280;45933;51.336;12.612;2023-04-29T03:03:10;99335.91;;;13.44;69.17
60061;BME280;45933;51.336;12.612;2023-04-29T03:05:35;99342.88;;;13.45;68.88
60061;BME280;45933;51.336;12.612;2023-04-29T03:08:02;99337.69;;;13.43;69.04
60061;BME280;45933;51.336;12.612;2023-04-29T03:10:28;99329.81;;;13.45;69.11
60061;BME280;45933;51.336;12.612;2023-04-29T03:12:54;99334.13;;;13.46;68.99
60061;BME280;45933;51.336;12.612;2023-04-29T03:15:19;99335.88;;;13.45;69.25
60061;BME280;45933;51.336;12.612;2023-04-29T03:17:44;99327.97;;;13.47;69.12
60061;BME280;45933;51.336;12.612;2023-04-29T03:20:10;99331.50;;;13.46;68.94
60061;BME280;45933;51.336;12.612;2023-04-29T03:22:36;99328.88;;;13.46;69.01
60061;BME280;45933;51.336;12.612;2023-04-29T03:25:01;99336.69;;;13.47;69.30
60061;BME280;45933;51.336;12.612;2023-04-29T03:27:27;99334.06;;;13.47;69.21
60061;BME280;45933;51.336;12.612;2023-04-29T03:29:52;99321.88;;;13.46;69.24
60061;BME280;45933;51.336;12.612;2023-04-29T03:32:17;99332.31;;;13.48;69.32
60061;BME280;45933;51.336;12.612;2023-04-29T03:34:42;99331.41;;;13.49;69.34
60061;BME280;45933;51.336;12.612;2023-04-29T03:37:08;99333.16;;;13.48;69.22
60061;BME280;45933;51.336;12.612;2023-04-29T03:39:33;99333.13;;;13.50;69.24
60061;BME280;45933;51.336;12.612;2023-04-29T03:41:58;99327.91;;;13.50;69.26
60061;BME280;45933;51.336;12.612;2023-04-29T03:44:24;99337.47;;;13.51;69.20
60061;BME280;45933;51.336;12.612;2023-04-29T03:46:50;99326.13;;;13.50;69.19
60061;BME280;45933;51.336;12.612;2023-04-29T03:49:15;99328.75;;;13.50;69.10
60061;BME280;45933;51.336;12.612;2023-04-29T03:51:40;99328.75;;;13.50;69.00
60061;BME280;45933;51.336;12.612;2023-04-29T03:54:06;99320.94;;;13.49;69.17
60061;BME280;45933;51.336;12.612;2023-04-29T03:56:32;99325.31;;;13.48;69.11
60061;BME280;45933;51.336;12.612;2023-04-29T03:58:57;99332.31;;;13.48;69.12
60061;BME280;45933;51.336;12.612;2023-04-29T04:01:22;99334.13;;;13.46;69.55
60061;BME280;45933;51.336;12.612;2023-04-29T04:03:48;99338.44;;;13.47;69.16
60061;BME280;45933;51.336;12.612;2023-04-29T04:06:13;99329.81;;;13.45;69.37
60061;BME280;45933;51.336;12.612;2023-04-29T04:08:39;99342.84;;;13.46;69.27
60061;BME280;45933;51.336;12.612;2023-04-29T04:11:05;99334.97;;;13.46;69.19
60061;BME280;45933;51.336;12.612;2023-04-29T04:13:31;99344.53;;;13.47;69.08
60061;BME280;45933;51.336;12.612;2023-04-29T04:15:57;99347.22;;;13.46;69.24
60061;BME280;45933;51.336;12.612;2023-04-29T04:18:23;99343.69;;;13.47;69.18
60061;BME280;45933;51.336;12.612;2023-04-29T04:20:48;99348.06;;;13.46;69.12
60061;BME280;45933;51.336;12.612;2023-04-29T04:23:13;99348.94;;;13.47;69.51
60061;BME280;45933;51.336;12.612;2023-04-29T04:25:47;99356.66;;;13.51;69.35
60061;BME280;45933;51.336;12.612;2023-04-29T04:28:13;99349.78;;;13.47;69.22
60061;BME280;45933;51.336;12.612;2023-04-29T04:30:39;99356.72;;;13.48;69.44
60061;BME280;45933;51.336;12.612;2023-04-29T04:33:04;99357.59;;;13.49;69.47
60061;BME280;45933;51.336;12.612;2023-04-29T04:35:30;99358.44;;;13.49;69.44
60061;BME280;45933;51.336;12.612;2023-04-29T04:37:55;99358.44;;;13.49;69.33
60061;BME280;45933;51.336;12.612;2023-04-29T04:40:21;99361.94;;;13.50;69.40
60061;BME280;45933;51.336;12.612;2023-04-29T04:42:46;99360.19;;;13.49;69.41
60061;BME280;45933;51.336;12.612;2023-04-29T04:45:12;99363.66;;;13.49;69.83
60061;BME280;45933;51.336;12.612;2023-04-29T04:47:39;99364.50;;;13.51;69.71
60061;BME280;45933;51.336;12.612;2023-04-29T04:50:05;99361.94;;;13.50;69.67
60061;BME280;45933;51.336;12.612;2023-04-29T04:52:31;99368.03;;;13.50;69.75
60061;BME280;45933;51.336;12.612;2023-04-29T04:54:56;99360.13;;;13.52;69.59
60061;BME280;45933;51.336;12.612;2023-04-29T04:57:21;99370.59;;;13.52;69.70
60061;BME280;45933;51.336;12.612;2023-04-29T04:59:46;99361.78;;;13.54;69.59
60061;BME280;45933;51.336;12.612;2023-04-29T05:02:12;99364.44;;;13.53;69.70
60061;BME280;45933;51.336;12.612;2023-04-29T05:04:40;99369.63;;;13.54;69.79
60061;BME280;45933;51.336;12.612;2023-04-29T05:07:05;99373.09;;;13.55;69.58
60061;BME280;45933;51.336;12.612;2023-04-29T05:09:31;99371.31;;;13.57;69.83
60061;BME280;45933;51.336;12.612;2023-04-29T05:11:56;99377.34;;;13.59;69.38
60061;BME280;45933;51.336;12.612;2023-04-29T05:14:24;99373.03;;;13.58;69.97
60061;BME280;45933;51.336;12.612;2023-04-29T05:16:49;99374.72;;;13.60;70.02
60061;BME280;45933;51.336;12.612;2023-04-29T05:19:15;99382.47;;;13.64;70.05
60061;BME280;45933;51.336;12.612;2023-04-29T05:21:40;99383.31;;;13.66;70.04
60061;BME280;45933;51.336;12.612;2023-04-29T05:24:06;99382.38;;;13.67;70.02
60061;BME280;45933;51.336;12.612;2023-04-29T05:26:31;99379.66;;;13.70;69.84
60061;BME280;45933;51.336;12.612;2023-04-29T05:28:56;99388.34;;;13.72;69.67
60061;BME280;45933;51.336;12.612;2023-04-29T05:31:22;99393.53;;;13.73;69.96
60061;BME280;45933;51.336;12.612;2023-04-29T05:33:47;99394.47;;;13.71;70.16
60061;BME280;45933;51.336;12.612;2023-04-29T05:36:12;99393.63;;;13.70;70.48
60061;BME280;45933;51.336;12.612;2023-04-29T05:38:37;99382.28;;;13.70;70.30
60061;BME280;45933;51.336;12.612;2023-04-29T05:41:03;99389.34;;;13.68;70.46
60061;BME280;45933;51.336;12.612;2023-04-29T05:43:28;99388.22;;;13.76;70.31
60061;BME280;45933;51.336;12.612;2023-04-29T05:45:54;99386.47;;;13.77;70.17
60061;BME280;45933;51.336;12.612;2023-04-29T05:48:19;99394.13;;;13.83;69.96
60061;BME280;45933;51.336;12.612;2023-04-29T05:50:45;99404.41;;;13.89;70.15
60061;BME280;45933;51.336;12.612;2023-04-29T05:53:12;99405.19;;;13.93;70.00
60061;BME280;45933;51.336;12.612;2023-04-29T05:55:38;99412.91;;;13.97;69.73
60061;BME280;45933;51.336;12.612;2023-04-29T05:58:03;99414.50;;;14.03;69.97
60061;BME280;45933;51.336;12.612;2023-04-29T06:00:29;99419.56;;;14.07;69.65
60061;BME280;45933;51.336;12.612;2023-04-29T06:02:55;99422.06;;;14.12;69.60
60061;BME280;45933;51.336;12.612;2023-04-29T06:05:21;99425.47;;;14.16;69.29
60061;BME280;45933;51.336;12.612;2023-04-29T06:07:46;99420.06;;;14.20;68.79
60061;BME280;45933;51.336;12.612;2023-04-29T06:10:12;99425.25;;;14.22;68.66
60061;BME280;45933;51.336;12.612;2023-04-29T06:12:37;99429.50;;;14.26;68.71
60061;BME280;45933;51.336;12.612;2023-04-29T06:15:02;99434.75;;;14.26;68.92
60061;BME280;45933;51.336;12.612;2023-04-29T06:17:28;99439.88;;;14.29;68.84
60061;BME280;45933;51.336;12.612;2023-04-29T06:19:56;99451.25;;;14.29;69.06
60061;BME280;45933;51.336;12.612;2023-04-29T06:22:22;99443.47;;;14.26;68.97
60061;BME280;45933;51.336;12.612;2023-04-29T06:24:47;99453.97;;;14.26;69.08
60061;BME280;45933;51.336;12.612;2023-04-29T06:27:16;99447.84;;;14.26;69.35
60061;BME280;45933;51.336;12.612;2023-04-29T06:29:42;99448.56;;;14.31;69.50
60061;BME280;45933;51.336;12.612;2023-04-29T06:32:07;99453.72;;;14.34;69.71
60061;BME280;45933;51.336;12.612;2023-04-29T06:34:32;99450.00;;;14.41;69.93
60061;BME280;45933;51.336;12.612;2023-04-29T06:36:58;99452.41;;;14.49;69.82
60061;BME280;45933;51.336;12.612;2023-04-29T06:39:23;99449.56;;;14.56;69.32
60061;BME280;45933;51.336;12.612;2023-04-29T06:41:49;99459.75;;;14.65;68.83
60061;BME280;45933;51.336;12.612;2023-04-29T06:44:14;99459.56;;;14.72;69.20
60061;BME280;45933;51.336;12.612;2023-04-29T06:46:40;99467.31;;;14.75;68.10
60061;BME280;45933;51.336;12.612;2023-04-29T06:49:07;99468.94;;;14.79;67.27
60061;BME280;45933;51.336;12.612;2023-04-29T06:51:32;99474.03;;;14.83;66.79
60061;BME280;45933;51.336;12.612;2023-04-29T06:53:58;99474.69;;;14.90;67.14
60061;BME280;45933;51.336;12.612;2023-04-29T06:56:23;99477.22;;;14.93;66.55
60061;BME280;45933;51.336;12.612;2023-04-29T06:58:49;99474.56;;;14.95;65.83
60061;BME280;45933;51.336;12.612;2023-04-29T07:01:15;99476.38;;;14.93;65.21
60061;BME280;45933;51.336;12.612;2023-04-29T07:03:40;99473.75;;;14.93;64.99
60061;BME280;45933;51.336;12.612;2023-04-29T07:06:09;99474.56;;;14.95;64.98
60061;BME280;45933;51.336;12.612;2023-04-29T07:08:34;99473.63;;;14.96;64.59
60061;BME280;45933;51.336;12.612;2023-04-29T07:10:59;99476.53;;;14.88;63.99
60061;BME280;45933;51.336;12.612;2023-04-29T07:13:25;99474.59;;;14.93;64.40
60061;BME280;45933;51.336;12.612;2023-04-29T07:15:50;99487.94;;;14.87;63.97
60061;BME280;45933;51.336;12.612;2023-04-29T07:18:16;99486.09;;;14.89;64.00
60061;BME280;45933;51.336;12.612;2023-04-29T07:20:41;99497.53;;;14.86;64.04
60061;BME280;45933;51.336;12.612;2023-04-29T07:23:07;99484.59;;;14.82;64.37
60061;BME280;45933;51.336;12.612;2023-04-29T07:25:33;99485.41;;;14.84;64.34
60061;BME280;45933;51.336;12.612;2023-04-29T07:27:58;99497.75;;;14.80;63.82
60061;BME280;45933;51.336;12.612;2023-04-29T07:30:24;99495.13;;;14.80;64.28
60061;BME280;45933;51.336;12.612;2023-04-29T07:32:49;99504.69;;;14.81;63.82
60061;BME280;45933;51.336;12.612;2023-04-29T07:35:15;99503.06;;;14.79;64.02
60061;BME280;45933;51.336;12.612;2023-04-29T07:37:40;99517.03;;;14.79;63.87
60061;BME280;45933;51.336;12.612;2023-04-29T07:40:07;99515.31;;;14.78;64.34
60061;BME280;45933;51.336;12.612;2023-04-29T07:42:33;99509.00;;;14.84;64.35
60061;BME280;45933;51.336;12.612;2023-04-29T07:44:58;99509.88;;;14.84;64.66
60061;BME280;45933;51.336;12.612;2023-04-29T07:47:24;99514.25;;;14.84;64.22
60061;BME280;45933;51.336;12.612;2023-04-29T07:49:49;99508.88;;;14.88;63.41
60061;BME280;45933;51.336;12.612;2023-04-29T07:52:14;99517.59;;;14.89;63.03
60061;BME280;45933;51.336;12.612;2023-04-29T07:54:39;99528.66;;;14.99;63.45
60061;BME280;45933;51.336;12.612;2023-04-29T07:57:05;99525.22;;;14.97;63.11
60061;BME280;45933;51.336;12.612;2023-04-29T07:59:31;99528.75;;;14.96;62.74
60061;BME280;45933;51.336;12.612;2023-04-29T08:01:56;99526.06;;;14.97;62.95
60061;BME280;45933;51.336;12.612;2023-04-29T08:04:22;99540.88;;;15.00;62.99
60061;BME280;45933;51.336;12.612;2023-04-29T08:06:48;99534.00;;;14.96;62.53
60061;BME280;45933;51.336;12.612;2023-04-29T08:09:14;99538.38;;;14.95;62.78
60061;BME280;45933;51.336;12.612;2023-04-29T08:11:40;99543.69;;;14.94;62.24
60061;BME280;45933;51.336;12.612;2023-04-29T08:14:05;99542.69;;;14.98;62.83
60061;BME280;45933;51.336;12.612;2023-04-29T08:16:30;99546.97;;;15.00;62.93
60061;BME280;45933;51.336;12.612;2023-04-29T08:18:56;99551.16;;;15.06;63.28
60061;BME280;45933;51.336;12.612;2023-04-29T08:21:21;99558.09;;;15.08;62.98
60061;BME280;45933;51.336;12.612;2023-04-29T08:23:47;99558.97;;;15.07;62.71
60061;BME280;45933;51.336;12.612;2023-04-29T08:26:12;99568.69;;;15.05;62.27
60061;BME280;45933;51.336;12.612;2023-04-29T08:28:38;99568.75;;;15.04;61.87
60061;BME280;45933;51.336;12.612;2023-04-29T08:31:04;99583.81;;;14.97;61.79
60061;BME280;45933;51.336;12.612;2023-04-29T08:33:37;99577.84;;;14.92;61.63
60061;BME280;45933;51.336;12.612;2023-04-29T08:36:02;99585.88;;;14.87;61.87
60061;BME280;45933;51.336;12.612;2023-04-29T08:38:30;99593.75;;;14.87;61.82
60061;BME280;45933;51.336;12.612;2023-04-29T08:40:56;99597.69;;;14.73;61.81
60061;BME280;45933;51.336;12.612;2023-04-29T08:43:22;99599.72;;;14.63;62.06
60061;BME280;45933;51.336;12.612;2023-04-29T08:45:48;99595.47;;;14.59;61.85
60061;BME280;45933;51.336;12.612;2023-04-29T08:48:15;99605.25;;;14.54;62.84
60061;BME280;45933;51.336;12.612;2023-04-29T08:50:41;99595.72;;;14.51;62.69
60061;BME280;45933;51.336;12.612;2023-04-29T08:53:11;99599.81;;;14.60;63.14
60061;BME280;45933;51.336;12.612;2023-04-29T08:55:41;99604.91;;;14.66;62.79
60061;BME280;45933;51.336;12.612;2023-04-29T08:58:07;99611.63;;;14.75;63.03
60061;BME280;45933;51.336;12.612;2023-04-29T09:00:34;99620.00;;;14.86;62.11
60061;BME280;45933;51.336;12.612;2023-04-29T09:03:00;99621.59;;;14.91;61.45
60061;BME280;45933;51.336;12.612;2023-04-29T09:05:27;99620.38;;;15.03;61.13
60061;BME280;45933;51.336;12.612;2023-04-29T09:07:55;99628.09;;;15.08;60.89
60061;BME280;45933;51.336;12.612;2023-04-29T09:10:21;99625.50;;;15.06;60.02
60061;BME280;45933;51.336;12.612;2023-04-29T09:12:47;99628.97;;;15.08;59.79
60061;BME280;45933;51.336;12.612;2023-04-29T09:15:12;99628.81;;;15.13;60.11
60061;BME280;45933;51.336;12.612;2023-04-29T09:17:42;99638.38;;;15.15;60.29
60061;BME280;45933;51.336;12.612;2023-04-29T09:23:04;99635.31;;;15.29;59.36
60061;BME280;45933;51.336;12.612;2023-04-29T09:25:29;99641.66;;;15.22;58.96
60061;BME280;45933;51.336;12.612;2023-04-29T09:27:55;99636.31;;;15.25;58.94
60061;BME280;45933;51.336;12.612;2023-04-29T09:30:21;99650.19;;;15.29;59.78
60061;BME280;45933;51.336;12.612;2023-04-29T09:33:07;99641.16;;;15.37;59.67
60061;BME280;45933;51.336;12.612;2023-04-29T09:35:33;99657.03;;;15.34;59.93
60061;BME280;45933;51.336;12.612;2023-04-29T09:38:09;99655.06;;;15.41;59.69
60061;BME280;45933;51.336;12.612;2023-04-29T09:40:35;99668.28;;;15.38;59.62
60061;BME280;45933;51.336;12.612;2023-04-29T09:43:01;99672.81;;;15.33;59.31
60061;BME280;45933;51.336;12.612;2023-04-29T09:45:36;99679.63;;;15.40;58.99
60061;BME280;45933;51.336;12.612;2023-04-29T09:48:03;99682.53;;;15.31;59.03
60061;BME280;45933;51.336;12.612;2023-04-29T09:50:30;99679.25;;;15.23;59.01
60061;BME280;45933;51.336;12.612;2023-04-29T09:52:56;99682.59;;;15.28;59.30
60061;BME280;45933;51.336;12.612;2023-04-29T09:55:22;99682.41;;;15.34;59.90
60061;BME280;45933;51.336;12.612;2023-04-29T09:57:47;99683.13;;;15.39;59.21
60061;BME280;45933;51.336;12.612;2023-04-29T10:00:13;99695.16;;;15.46;58.81
60061;BME280;45933;51.336;12.612;2023-04-29T10:02:41;99690.72;;;15.48;57.68
60061;BME280;45933;51.336;12.612;2023-04-29T10:05:08;99694.06;;;15.53;57.88
60061;BME280;45933;51.336;12.612;2023-04-29T10:07:34;99699.31;;;15.53;57.67
60061;BME280;45933;51.336;12.612;2023-04-29T10:10:01;99699.31;;;15.53;57.52
60061;BME280;45933;51.336;12.612;2023-04-29T10:12:30;99697.75;;;15.48;57.65
60061;BME280;45933;51.336;12.612;2023-04-29T10:17:41;99710.69;;;15.26;57.32
60061;BME280;45933;51.336;12.612;2023-04-29T10:20:12;99719.38;;;15.28;57.65
60061;BME280;45933;51.336;12.612;2023-04-29T10:22:48;99725.66;;;15.22;57.31
60061;BME280;45933;51.336;12.612;2023-04-29T10:25:21;99726.03;;;15.10;57.88
60061;BME280;45933;51.336;12.612;2023-04-29T10:27:47;99725.38;;;15.03;58.35
60061;BME280;45933;51.336;12.612;2023-04-29T10:30:15;99736.03;;;14.97;58.63
60061;BME280;45933;51.336;12.612;2023-04-29T10:32:45;99733.63;;;14.89;58.41
60061;BME280;45933;51.336;12.612;2023-04-29T10:35:12;99742.66;;;14.79;58.88
60061;BME280;45933;51.336;12.612;2023-04-29T10:37:39;99750.63;;;14.76;58.64
60061;BME280;45933;51.336;12.612;2023-04-29T10:40:35;99744.50;;;14.77;57.98
60061;BME280;45933;51.336;12.612;2023-04-29T10:43:01;99749.03;;;14.71;58.92
60061;BME280;45933;51.336;12.612;2023-04-29T10:45:27;99735.88;;;14.72;58.76
60061;BME280;45933;51.336;12.612;2023-04-29T10:53:04;99749.75;;;14.77;58.84
60061;BME280;45933;51.336;12.612;2023-04-29T10:55:30;99758.66;;;14.70;58.69
60061;BME280;45933;51.336;12.612;2023-04-29T10:57:55;99754.44;;;14.66;58.45
60061;BME280;45933;51.336;12.612;2023-04-29T11:00:25;99756.16;;;14.65;58.57
60061;BME280;45933;51.336;12.612;2023-04-29T11:02:58;99760.81;;;14.56;58.45
60061;BME280;45933;51.336;12.612;2023-04-29T11:05:32;99760.78;;;14.57;58.75
60061;BME280;45933;51.336;12.612;2023-04-29T11:08:10;99762.53;;;14.57;58.76
60061;BME280;45933;51.336;12.612;2023-04-29T11:10:39;99757.53;;;14.46;59.13
60061;BME280;45933;51.336;12.612;2023-04-29T11:15:50;99777.84;;;14.39;59.25
60061;BME280;45933;51.336;12.612;2023-04-29T11:18:15;99777.19;;;14.30;59.42
60061;BME280;45933;51.336;12.612;2023-04-29T11:21:20;99774.75;;;14.22;59.28
60061;BME280;45933;51.336;12.612;2023-04-29T11:23:46;99784.59;;;14.12;59.50
60061;BME280;45933;51.336;12.612;2023-04-29T11:26:12;99785.50;;;14.11;59.55
60061;BME280;45933;51.336;12.612;2023-04-29T11:28:37;99792.72;;;14.03;59.95
60061;BME280;45933;51.336;12.612;2023-04-29T11:31:06;99791.88;;;14.03;59.86
60061;BME280;45933;51.336;12.612;2023-04-29T11:33:31;99793.69;;;13.99;59.92
60061;BME280;45933;51.336;12.612;2023-04-29T11:35:57;99798.03;;;14.00;59.79
60061;BME280;45933;51.336;12.612;2023-04-29T11:38:27;99805.06;;;13.98;60.02
60061;BME280;45933;51.336;12.612;2023-04-29T11:40:56;99804.97;;;14.01;59.90
60061;BME280;45933;51.336;12.612;2023-04-29T11:43:23;99808.56;;;13.97;60.07
60061;BME280;45933;51.336;12.612;2023-04-29T11:45:49;99812.13;;;13.95;60.11
60061;BME280;45933;51.336;12.612;2023-04-29T11:48:22;99819.84;;;14.01;60.18
60061;BME280;45933;51.336;12.612;2023-04-29T11:50:50;99826.13;;;13.94;60.09
60061;BME280;45933;51.336;12.612;2023-04-29T11:53:19;99832.38;;;13.88;60.36
60061;BME280;45933;51.336;12.612;2023-04-29T11:55:45;99832.53;;;13.82;60.14
60061;BME280;45933;51.336;12.612;2023-04-29T11:58:10;99836.91;;;13.80;60.53
60061;BME280;45933;51.336;12.612;2023-04-29T12:00:36;99833.53;;;13.76;61.06
60061;BME280;45933;51.336;12.612;2023-04-29T12:05:51;99843.88;;;13.81;60.38
60061;BME280;45933;51.336;12.612;2023-04-29T12:08:24;99842.88;;;13.86;60.70
60061;BME280;45933;51.336;12.612;2023-04-29T12:10:51;99841.31;;;13.79;61.01
60061;BME280;45933;51.336;12.612;2023-04-29T12:13:17;99845.53;;;13.85;60.67
60061;BME280;45933;51.336;12.612;2023-04-29T12:15:47;99853.25;;;13.91;60.06
60061;BME280;45933;51.336;12.612;2023-04-29T12:18:13;99856.69;;;13.95;59.80
60061;BME280;45933;51.336;12.612;2023-04-29T12:20:39;99861.78;;;14.01;60.10
60061;BME280;45933;51.336;12.612;2023-04-29T12:23:15;99853.75;;;14.08;59.62
60061;BME280;45933;51.336;12.612;2023-04-29T12:25:47;99851.00;;;14.13;59.49
60061;BME280;45933;51.336;12.612;2023-04-29T12:28:14;99850.97;;;14.15;59.34
60061;BME280;45933;51.336;12.612;2023-04-29T12:30:39;99851.03;;;14.11;59.35
60061;BME280;45933;51.336;12.612;2023-04-29T12:33:08;99854.25;;;14.24;59.47
60061;BME280;45933;51.336;12.612;2023-04-29T12:35:34;99855.84;;;14.30;60.33
60061;BME280;45933;51.336;12.612;2023-04-29T12:37:59;99854.69;;;14.42;60.00
60061;BME280;45933;51.336;12.612;2023-04-29T12:40:25;99851.88;;;14.49;59.18
60061;BME280;45933;51.336;12.612;2023-04-29T12:42:52;99858.63;;;14.59;59.03
60061;BME280;45933;51.336;12.612;2023-04-29T12:45:25;99855.78;;;14.69;58.79
60061;BME280;45933;51.336;12.612;2023-04-29T12:47:51;99854.88;;;14.70;58.37
60061;BME280;45933;51.336;12.612;2023-04-29T12:50:16;99863.38;;;14.79;58.02
60061;BME280;45933;51.336;12.612;2023-04-29T12:52:42;99864.91;;;14.86;58.22
60061;BME280;45933;51.336;12.612;2023-04-29T12:55:07;99870.09;;;14.89;57.96
60061;BME280;45933;51.336;12.612;2023-04-29T12:57:32;99868.16;;;14.96;57.42
60061;BME280;45933;51.336;12.612;2023-04-29T12:59:58;99868.03;;;15.01;57.46
60061;BME280;45933;51.336;12.612;2023-04-29T13:02:23;99863.47;;;15.09;57.41
60061;BME280;45933;51.336;12.612;2023-04-29T13:04:49;99871.34;;;15.07;57.00
60061;BME280;45933;51.336;12.612;2023-04-29T13:07:14;99868.41;;;15.20;56.97